Time;durP1;ratioP1;P1;durP2;ratioP2;P2;SDS_P1;SDS_P2;PMS_P1;PMS_P2;Temp;Humidity;BMP_temperature;BMP_pressure;BME280_temperature;BME280_humidity;BME280_pressure;Samples;Min_cycle;Max_cycle;Signal;HPM_P1;HPM_P2
2022/08/12 00:44:11;;;;;;;10.37;9.73;;;;;;;19.89;66.93;92930.28;5038327;28;20240;-69
2022/08/12 00:46:48;;;;;;;8.30;7.90;;;;;;;19.94;67.46;92938.00;5041910;28;20200;-69
2022/08/12 00:49:15;;;;;;;9.88;9.27;;;;;;;19.91;67.74;92938.66;5035436;28;20294;-69
2022/08/12 00:54:26;;;;;;;9.27;8.67;;;;;;;20.10;65.71;92930.97;5034203;28;20285;-69
2022/08/12 00:56:53;;;;;;;8.73;8.33;;;;;;;19.87;66.75;92901.47;5039279;28;20264;-70
2022/08/12 00:59:19;;;;;;;9.00;8.50;;;;;;;20.03;67.00;92938.72;5037865;28;20231;-69
2022/08/12 01:01:47;;;;;;;9.23;8.53;;;;;;;19.95;66.98;92937.72;5038151;28;20187;-69
2022/08/12 01:12:37;;;;;;;8.65;8.05;;;;;;;19.98;67.63;92950.31;5037715;28;20189;-69
2022/08/12 01:15:03;;;;;;;8.93;8.43;;;;;;;19.98;67.46;92949.53;5036570;28;20260;-69
2022/08/12 01:17:29;;;;;;;8.57;7.97;;;;;;;20.06;67.74;92946.75;5039883;28;20214;-70
2022/08/12 01:19:59;;;;;;;9.68;9.07;;;;;;;20.07;67.22;92950.19;5037057;28;20237;-69
2022/08/12 01:23:21;;;;;;;9.65;9.15;;;;;;;19.98;67.30;92939.69;5037518;28;20297;-69
2022/08/12 01:25:50;;;;;;;9.23;8.73;;;;;;;19.89;67.46;92931.03;4982661;28;20219;-69
2022/08/12 01:28:19;;;;;;;9.73;9.23;;;;;;;20.05;67.19;92950.53;4995923;28;20192;-69
2022/08/12 01:30:48;;;;;;;8.20;7.77;;;;;;;20.02;67.67;92951.19;5023091;28;20231;-69
2022/08/12 01:33:16;;;;;;;9.05;8.55;;;;;;;20.02;67.75;92945.88;5037845;28;20188;-69
2022/08/12 01:35:48;;;;;;;8.63;8.23;;;;;;;20.08;67.99;92951.75;5038719;28;20247;-70
2022/08/12 01:38:21;;;;;;;10.30;9.70;;;;;;;20.16;66.14;92950.91;5037701;28;20186;-71
2022/08/12 01:40:48;;;;;;;9.33;8.83;;;;;;;20.17;66.36;92953.22;5031306;28;20229;-69
2022/08/12 01:43:20;;;;;;;9.77;9.17;;;;;;;20.08;67.22;92949.88;5037470;28;20222;-68
2022/08/12 01:45:58;;;;;;;9.53;9.03;;;;;;;20.02;67.58;92948.53;5038455;28;20247;-69
2022/08/12 01:48:26;;;;;;;9.90;9.37;;;;;;;19.76;68.35;92958.63;5037252;28;20189;-69
2022/08/12 01:51:01;;;;;;;8.93;8.33;;;;;;;19.81;68.49;92949.69;5038854;28;20292;-69
2022/08/12 01:53:45;;;;;;;10.57;9.97;;;;;;;19.64;69.49;92950.63;5039327;28;20197;-70
2022/08/12 01:56:13;;;;;;;10.40;9.80;;;;;;;19.75;69.01;92943.81;5038254;28;20191;-69
2022/08/12 02:01:33;;;;;;;10.20;9.50;;;;;;;19.56;70.21;92945.41;5038044;28;20397;-69
2022/08/12 02:13:39;;;;;;;10.30;9.70;;;;;;;19.73;70.29;92940.72;5041738;28;20288;-69
2022/08/12 02:16:22;;;;;;;9.57;8.83;;;;;;;19.77;70.33;92944.25;5034117;28;20213;-69
2022/08/12 02:19:33;;;;;;;10.40;9.57;;;;;;;19.74;71.21;92950.22;5040312;28;20236;-68
2022/08/12 02:22:25;;;;;;;10.98;10.07;;;;;;;19.70;71.66;92944.03;5040041;28;20327;-69
2022/08/12 02:24:55;;;;;;;9.90;9.30;;;;;;;19.78;71.39;92943.16;5038996;28;20239;-69
2022/08/12 02:27:23;;;;;;;9.40;8.80;;;;;;;19.77;71.41;92944.25;5040935;28;20194;-69
2022/08/12 02:29:48;;;;;;;9.63;8.90;;;;;;;19.72;71.79;92935.75;5043695;28;20251;-69
2022/08/12 02:32:14;;;;;;;9.73;9.18;;;;;;;19.80;71.67;92943.59;5044081;28;20201;-70
2022/08/12 02:34:42;;;;;;;8.90;8.40;;;;;;;19.75;72.02;92951.75;5038006;28;20225;-69
2022/08/12 02:37:12;;;;;;;10.07;9.38;;;;;;;19.73;72.26;92940.72;5039925;28;20196;-69
2022/08/12 02:39:43;;;;;;;9.03;8.50;;;;;;;19.63;72.76;92942.97;5040500;28;20247;-69
2022/08/12 02:42:10;;;;;;;9.30;8.80;;;;;;;19.68;72.00;92935.63;5039488;28;20194;-69
2022/08/12 02:44:39;;;;;;;9.40;8.90;;;;;;;19.59;72.75;92942.09;5038860;28;20233;-69
2022/08/12 02:47:06;;;;;;;10.20;9.50;;;;;;;19.61;73.06;92938.00;5038882;28;20189;-68
2022/08/12 02:49:40;;;;;;;9.00;8.50;;;;;;;19.55;73.72;92941.97;5041039;28;20301;-69
2022/08/12 02:52:09;;;;;;;9.67;9.07;;;;;;;19.58;73.36;92941.31;5040870;28;20226;-69
2022/08/12 02:54:35;;;;;;;8.70;8.10;;;;;;;19.62;72.19;92936.94;5040406;28;20861;-69
2022/08/12 02:57:00;;;;;;;9.50;8.97;;;;;;;19.39;72.08;92897.88;5039185;28;20197;-69
2022/08/12 02:59:27;;;;;;;8.73;8.15;;;;;;;19.66;72.35;92937.06;5042073;28;20213;-68
2022/08/12 03:01:58;;;;;;;9.33;8.83;;;;;;;19.64;72.96;92945.34;5042948;28;20268;-69
2022/08/12 03:04:49;;;;;;;9.20;8.65;;;;;;;19.62;73.21;92942.22;5039632;28;20210;-69
2022/08/12 03:07:20;;;;;;;9.83;9.23;;;;;;;19.59;73.32;92942.88;5040730;28;20209;-70
2022/08/12 03:09:51;;;;;;;9.73;9.13;;;;;;;19.60;73.35;92941.78;5038863;28;20332;-69
2022/08/12 03:12:19;;;;;;;8.88;8.38;;;;;;;19.48;73.94;92944.38;5038826;28;20255;-69
2022/08/12 03:14:45;;;;;;;9.70;9.10;;;;;;;19.37;74.34;92935.28;5039669;28;20249;-69
2022/08/12 03:17:29;;;;;;;10.10;9.50;;;;;;;19.52;73.94;92937.31;5039496;28;20173;-69
2022/08/12 03:19:56;;;;;;;9.97;9.27;;;;;;;19.44;73.34;92932.88;5038315;28;20238;-69
2022/08/12 03:22:23;;;;;;;11.00;10.30;;;;;;;19.49;73.22;92937.19;5040026;28;20185;-69
2022/08/12 03:24:49;;;;;;;10.07;9.45;;;;;;;19.37;73.91;92940.56;5041221;28;20284;-69
2022/08/12 03:27:15;;;;;;;11.43;10.57;;;;;;;19.65;72.14;92936.28;5043658;28;20216;-69
2022/08/12 03:29:46;;;;;;;10.57;9.87;;;;;;;19.77;72.17;92954.88;5037054;28;20297;-70
2022/08/12 03:32:13;;;;;;;10.13;9.43;;;;;;;19.40;72.86;92923.25;5039926;28;20216;-69
2022/08/12 03:34:40;;;;;;;10.43;9.63;;;;;;;19.42;74.64;92950.19;5038728;28;20221;-70
2022/08/12 03:37:09;;;;;;;10.70;10.00;;;;;;;19.34;75.87;92941.22;5036875;28;20182;-69
2022/08/12 03:39:41;;;;;;;11.53;10.73;;;;;;;19.34;78.19;92956.31;5040700;28;20231;-69
2022/08/12 03:42:23;;;;;;;11.07;10.37;;;;;;;19.36;79.82;92962.88;5041186;28;20190;-69
2022/08/12 04:01:39;;;;;;;12.40;11.40;;;;;;;18.65;91.76;92953.31;5040258;28;20279;-70
2022/08/12 04:04:07;;;;;;;12.47;11.50;;;;;;;18.39;92.89;92937.56;5038498;28;20236;-69
2022/08/12 04:06:34;;;;;;;12.77;11.97;;;;;;;18.46;94.18;92947.66;5039790;28;20224;-69
2022/08/12 04:08:59;;;;;;;13.13;12.23;;;;;;;18.53;94.54;92943.41;5038470;28;20279;-68
2022/08/12 04:14:18;;;;;;;11.17;10.27;;;;;;;18.32;96.80;92952.34;5038482;28;20225;-69
2022/08/12 04:16:45;;;;;;;11.43;10.67;;;;;;;18.09;98.06;92914.00;5037960;28;20230;-68
2022/08/12 04:19:12;;;;;;;11.60;10.63;;;;;;;18.23;99.16;92933.88;5037771;28;20227;-68
2022/08/12 04:21:38;;;;;;;10.90;10.17;;;;;;;18.21;100.00;92951.91;5037811;28;20268;-69
2022/08/12 04:24:04;;;;;;;11.43;10.60;;;;;;;18.43;99.45;92954.34;5037779;28;20229;-68
2022/08/12 04:26:30;;;;;;;11.60;10.87;;;;;;;18.58;98.10;92953.81;5038433;28;20210;-68
2022/08/12 04:28:57;;;;;;;11.30;10.60;;;;;;;18.65;97.32;92962.03;5040480;28;20238;-68
2022/08/12 04:31:35;;;;;;;11.03;10.33;;;;;;;18.47;98.68;92955.28;5040323;28;20199;-69
2022/08/12 04:34:01;;;;;;;11.90;10.90;;;;;;;18.33;98.79;92933.53;5039349;28;20226;-68
2022/08/12 04:36:28;;;;;;;11.17;10.37;;;;;;;18.22;100.00;92947.41;5038451;28;20192;-69
2022/08/12 04:38:54;;;;;;;11.93;11.07;;;;;;;18.23;100.00;92954.22;5037464;28;20227;-67
2022/08/12 04:41:20;;;;;;;13.03;11.67;;;;;;;18.32;100.00;92952.34;5038133;28;20225;-68
2022/08/12 04:43:47;;;;;;;12.40;11.50;;;;;;;18.27;100.00;92957.81;5040305;28;20238;-68
2022/08/12 04:46:14;;;;;;;12.70;11.57;;;;;;;18.25;100.00;92952.06;5037508;28;20177;-68
2022/08/12 04:48:40;;;;;;;12.97;11.93;;;;;;;18.32;99.84;92937.25;5042184;28;20282;-70
2022/08/12 04:51:06;;;;;;;12.13;11.23;;;;;;;18.32;100.00;92939.13;5036574;28;20241;-68
2022/08/12 04:53:32;;;;;;;11.70;10.87;;;;;;;18.34;100.00;92942.22;5040577;28;20185;-68
2022/08/12 04:55:59;;;;;;;13.10;12.10;;;;;;;18.31;100.00;92946.28;5038282;28;20577;-70
2022/08/12 04:58:25;;;;;;;12.53;11.53;;;;;;;18.43;100.00;92937.69;5036696;28;20188;-69
2022/08/12 05:00:50;;;;;;;12.00;11.03;;;;;;;18.36;100.00;92938.19;5037479;28;20193;-68
2022/08/12 05:03:16;;;;;;;11.40;10.57;;;;;;;18.40;100.00;92938.34;5038815;28;20203;-68
2022/08/12 05:05:41;;;;;;;11.13;10.27;;;;;;;18.49;100.00;92936.44;5037625;28;20235;-69
2022/08/12 05:08:12;;;;;;;11.40;10.60;;;;;;;18.35;100.00;92935.84;5040445;28;20231;-68
2022/08/12 05:10:39;;;;;;;11.07;10.37;;;;;;;18.65;100.00;92940.88;5036263;28;20237;-68
2022/08/12 05:13:08;;;;;;;11.23;10.53;;;;;;;18.65;99.77;92940.06;5039417;28;20190;-70
2022/08/12 05:15:37;;;;;;;9.83;9.23;;;;;;;18.61;98.85;92945.25;5037933;28;20223;-68
2022/08/12 05:18:02;;;;;;;11.03;10.33;;;;;;;18.66;98.33;92946.94;5036790;28;20201;-68
2022/08/12 05:20:28;;;;;;;10.77;9.63;;;;;;;18.71;99.52;92949.38;5037567;28;20314;-69
2022/08/12 05:23:07;;;;;;;11.00;10.17;;;;;;;18.71;100.00;92949.38;5040933;28;20188;-68
2022/08/12 05:25:32;;;;;;;10.47;9.77;;;;;;;18.76;100.00;92935.97;5036955;28;20224;-69
2022/08/12 05:27:59;;;;;;;12.17;10.83;;;;;;;18.86;99.26;92946.19;5037555;28;20199;-68
2022/08/12 05:30:29;;;;;;;11.27;10.47;;;;;;;18.85;99.32;92961.28;5036494;28;20225;-70
2022/08/12 05:32:56;;;;;;;10.83;9.83;;;;;;;18.78;99.05;92966.31;5035654;28;20185;-69
2022/08/12 05:35:22;;;;;;;11.23;10.37;;;;;;;18.77;98.66;92956.06;5037763;28;20226;-68
2022/08/12 05:37:48;;;;;;;11.83;10.90;;;;;;;18.73;100.00;92971.78;5036142;28;20196;-69
2022/08/12 05:40:13;;;;;;;11.77;10.87;;;;;;;18.70;99.82;92950.47;5035406;28;21347;-68
2022/08/12 05:42:39;;;;;;;11.97;10.97;;;;;;;18.74;98.82;92949.53;5038057;28;20217;-69
2022/08/12 05:45:05;;;;;;;12.60;11.67;;;;;;;18.94;97.99;92982.41;5038384;28;20229;-68
2022/08/12 05:47:31;;;;;;;11.90;10.77;;;;;;;18.98;97.49;92975.38;5037328;28;20867;-68
2022/08/12 05:49:58;;;;;;;12.20;11.40;;;;;;;19.08;97.30;92982.97;5040534;28;20247;-69
2022/08/12 05:52:24;;;;;;;11.60;10.60;;;;;;;19.12;97.51;92981.22;5036911;28;20185;-68
2022/08/12 05:54:50;;;;;;;12.10;11.20;;;;;;;19.00;98.28;92979.25;5038727;28;20278;-69
2022/08/12 05:57:16;;;;;;;11.97;10.97;;;;;;;18.83;96.17;92966.13;5036175;28;20214;-69
2022/08/12 05:59:42;;;;;;;11.83;10.60;;;;;;;19.34;96.30;92975.63;5038371;28;20309;-68
2022/08/12 06:02:09;;;;;;;12.87;11.73;;;;;;;19.43;96.40;92979.00;5037360;28;20195;-68
2022/08/12 06:04:35;;;;;;;10.67;9.97;;;;;;;19.51;94.72;92967.56;5037078;28;20231;-69
2022/08/12 06:07:01;;;;;;;11.23;10.53;;;;;;;19.48;95.83;92962.91;5038394;28;20220;-68
2022/08/12 06:09:29;;;;;;;10.50;9.83;;;;;;;19.68;96.24;92972.72;5035736;28;20225;-70
2022/08/12 06:11:55;;;;;;;10.43;9.63;;;;;;;19.82;95.65;92972.44;5037274;28;20190;-69
2022/08/12 06:14:21;;;;;;;10.48;9.77;;;;;;;19.90;95.16;92971.59;5037518;28;20232;-68
2022/08/12 06:16:48;;;;;;;9.87;9.27;;;;;;;20.11;94.74;92978.38;5036375;28;20205;-69
2022/08/12 06:19:14;;;;;;;9.85;9.23;;;;;;;20.23;93.45;92973.13;5037168;28;20315;-67
2022/08/12 06:21:40;;;;;;;10.30;9.70;;;;;;;20.26;92.61;92982.31;5040458;28;20183;-68
2022/08/12 06:24:07;;;;;;;10.68;9.95;;;;;;;20.51;91.51;92968.75;5037843;28;20218;-68
2022/08/12 06:26:33;;;;;;;10.82;9.85;;;;;;;20.72;90.17;92970.56;5036320;28;20388;-68
2022/08/12 06:28:59;;;;;;;13.43;12.33;;;;;;;20.50;92.08;92977.81;5037516;28;20234;-69
2022/08/12 06:31:25;;;;;;;15.50;14.32;;;;;;;20.53;92.93;92971.06;5040730;28;20248;-69
2022/08/12 06:33:52;;;;;;;11.05;10.20;;;;;;;20.71;89.63;92980.38;5036099;28;20240;-68
2022/08/12 06:36:22;;;;;;;11.98;10.00;;;;;;;20.72;90.84;92978.53;5036673;28;20204;-69
2022/08/12 06:38:48;;;;;;;10.73;10.05;;;;;;;20.75;90.67;92983.91;5039193;28;20227;-69
2022/08/12 06:43:58;;;;;;;10.70;10.00;;;;;;;21.04;89.23;92980.31;5040080;28;20245;-69
2022/08/12 06:46:25;;;;;;;10.70;10.02;;;;;;;21.18;89.38;92972.75;5036105;28;20201;-68
2022/08/12 06:48:55;;;;;;;11.95;10.93;;;;;;;21.27;87.81;92979.50;5038138;28;20240;-69
2022/08/12 06:51:22;;;;;;;11.20;10.30;;;;;;;21.27;86.71;92944.97;5039586;28;20207;-69
2022/08/12 06:53:47;;;;;;;10.70;9.80;;;;;;;21.74;83.21;92977.81;5039866;28;20230;-70
2022/08/12 06:56:13;;;;;;;11.50;10.57;;;;;;;21.92;82.46;92965.81;5044166;28;20176;-69
2022/08/12 06:58:38;;;;;;;11.13;10.25;;;;;;;21.80;82.73;92930.53;5038589;28;20195;-69
2022/08/12 07:01:06;;;;;;;11.32;10.52;;;;;;;22.27;83.51;92971.31;5039322;28;20185;-70
2022/08/12 07:03:31;;;;;;;10.85;10.18;;;;;;;22.31;83.16;92979.34;5040353;28;20196;-70
2022/08/12 07:06:00;;;;;;;11.05;10.00;;;;;;;22.32;82.85;92973.69;5041556;28;20184;-69
2022/08/12 07:08:32;;;;;;;11.55;10.65;;;;;;;22.32;83.82;92973.69;5038769;28;20286;-70
2022/08/12 07:11:04;;;;;;;10.73;10.02;;;;;;;22.43;83.96;92977.41;5042094;28;20212;-70
2022/08/12 07:13:37;;;;;;;10.20;9.40;;;;;;;22.45;77.98;92972.50;5039685;28;20203;-68
2022/08/12 07:16:04;;;;;;;9.98;9.38;;;;;;;22.51;78.33;92947.22;5041101;28;20202;-70
2022/08/12 07:18:34;;;;;;;9.20;8.65;;;;;;;22.50;78.86;92972.25;5037813;28;20201;-69
2022/08/12 07:21:02;;;;;;;10.10;9.40;;;;;;;22.91;73.86;92979.75;5041535;28;20206;-70
2022/08/12 07:23:29;;;;;;;10.00;9.40;;;;;;;23.08;75.34;92968.72;5036560;28;20254;-69
2022/08/12 07:25:55;;;;;;;9.32;8.80;;;;;;;23.28;75.20;92978.38;5040920;28;20197;-69
2022/08/12 07:28:23;;;;;;;10.93;10.00;;;;;;;23.58;72.57;92979.38;5038493;28;20252;-70
2022/08/12 07:30:51;;;;;;;9.52;8.93;;;;;;;23.75;67.45;92981.63;5039785;28;20225;-68
2022/08/12 07:33:21;;;;;;;9.63;9.02;;;;;;;23.96;70.26;92956.50;5037593;28;20183;-69
2022/08/12 07:35:47;;;;;;;9.10;8.55;;;;;;;24.19;68.79;92989.41;5039828;28;20217;-68
2022/08/12 07:38:24;;;;;;;9.40;8.80;;;;;;;24.46;63.67;92980.34;5039745;28;20731;-68
2022/08/12 07:41:02;;;;;;;9.50;8.80;;;;;;;24.75;61.94;92974.38;5037766;28;20296;-69
2022/08/12 07:43:29;;;;;;;9.25;8.60;;;;;;;24.83;62.80;92965.38;5040118;28;20177;-69
2022/08/12 07:45:55;;;;;;;9.02;8.43;;;;;;;24.40;60.09;92944.41;5041934;28;20187;-69
2022/08/12 07:48:23;;;;;;;9.43;8.93;;;;;;;24.23;59.97;92953.66;5041134;28;20192;-69
2022/08/12 07:50:49;;;;;;;10.02;9.40;;;;;;;23.81;62.82;92928.81;5036714;28;20244;-69
2022/08/12 07:53:14;;;;;;;8.98;8.38;;;;;;;24.05;60.22;92962.44;5040317;28;20190;-69
2022/08/12 07:55:40;;;;;;;8.80;8.02;;;;;;;24.00;61.95;92944.06;5038545;28;20232;-69
2022/08/12 07:58:07;;;;;;;9.10;8.27;;;;;;;24.13;62.59;92961.44;5039524;28;20217;-68
2022/08/12 08:00:34;;;;;;;9.68;9.18;;;;;;;24.38;61.60;92960.78;5037201;28;21519;-70
2022/08/12 08:03:01;;;;;;;8.88;8.45;;;;;;;23.99;63.70;92961.16;5039614;28;21126;-70
2022/08/12 08:05:48;;;;;;;9.77;8.57;;;;;;;24.32;64.58;92956.06;5038347;28;20288;-70
2022/08/12 08:08:28;;;;;;;10.10;9.50;;;;;;;23.94;64.01;92961.44;5040970;28;20229;-70
2022/08/12 08:12:52;;;;;;;9.75;9.15;;;;;;;23.72;63.80;92969.00;5036357;28;20233;-70
2022/08/12 08:13:44;;;;;;;8.45;8.05;;;;;;;24.13;63.26;92964.09;5038268;28;20240;-70
2022/08/12 08:16:11;;;;;;;9.20;8.70;;;;;;;24.06;62.20;92967.44;5039260;28;20191;-70
2022/08/12 08:18:36;;;;;;;9.07;8.48;;;;;;;24.08;62.22;92959.06;5037531;28;20211;-71
2022/08/12 08:21:03;;;;;;;8.23;7.72;;;;;;;24.14;59.87;92949.66;5040247;28;20225;-70
2022/08/12 08:26:15;;;;;;;9.32;8.82;;;;;;;24.88;59.34;92957.84;5039243;28;20202;-71
2022/08/12 08:28:41;;;;;;;9.52;8.85;;;;;;;24.99;57.67;92961.44;5034789;28;20240;-70
2022/08/12 08:31:06;;;;;;;9.32;8.80;;;;;;;24.54;58.01;92928.63;5038488;28;20266;-69
2022/08/12 08:33:32;;;;;;;9.70;9.10;;;;;;;24.90;55.62;92936.84;5038020;28;20184;-70
2022/08/12 08:35:58;;;;;;;8.90;8.45;;;;;;;25.20;56.01;92960.97;5035775;28;20209;-70
2022/08/12 08:38:23;;;;;;;9.30;8.80;;;;;;;25.33;57.01;92954.31;5041659;28;20188;-70
2022/08/12 08:43:33;;;;;;;8.90;8.30;;;;;;;24.93;59.99;92930.03;5040952;28;20254;-70
2022/08/12 08:46:04;;;;;;;9.43;8.55;;;;;;;25.06;54.72;92918.00;5037125;28;20198;-70
2022/08/12 08:48:32;;;;;;;8.65;8.25;;;;;;;25.03;54.18;92943.56;5036269;28;20189;-70
2022/08/12 08:50:58;;;;;;;9.32;8.68;;;;;;;24.88;54.37;92946.38;5037960;28;20209;-70
2022/08/12 08:53:24;;;;;;;9.18;8.57;;;;;;;24.96;54.35;92951.47;5039170;28;20185;-70
2022/08/12 08:55:49;;;;;;;9.32;8.73;;;;;;;24.95;52.95;92943.81;5036753;28;20281;-70
2022/08/12 08:58:17;;;;;;;8.93;8.43;;;;;;;24.94;53.21;92944.94;5038994;28;20194;-69
2022/08/12 09:00:42;;;;;;;7.95;7.55;;;;;;;25.20;51.59;92944.94;5039214;28;20234;-70
2022/08/12 09:03:08;;;;;;;7.95;7.55;;;;;;;25.34;51.21;92950.50;5038110;28;20260;-70
2022/08/12 09:05:34;;;;;;;8.93;8.43;;;;;;;24.68;48.71;92940.34;5038673;28;20288;-70
2022/08/12 09:08:03;;;;;;;9.05;8.55;;;;;;;24.38;50.96;92926.06;5039923;28;20235;-70
2022/08/12 09:10:30;;;;;;;9.02;8.52;;;;;;;24.73;49.89;92941.94;5039561;28;20236;-70
2022/08/12 09:15:40;;;;;;;9.00;8.50;;;;;;;24.91;47.24;92900.25;5039164;28;20285;-69
2022/08/12 09:18:07;;;;;;;8.75;8.30;;;;;;;25.06;46.08;92945.50;5041178;28;20185;-70
2022/08/12 09:20:34;;;;;;;8.68;8.20;;;;;;;24.88;47.96;92907.06;5039191;28;20228;-70
2022/08/12 09:23:01;;;;;;;8.65;8.05;;;;;;;24.85;50.23;92941.75;5035064;28;20197;-70
2022/08/12 09:25:30;;;;;;;8.40;7.90;;;;;;;24.38;53.49;92922.63;5036983;28;20228;-70
2022/08/12 09:27:57;;;;;;;8.32;7.88;;;;;;;24.33;51.06;92944.28;5036294;28;20223;-71
2022/08/12 09:30:23;;;;;;;9.10;8.60;;;;;;;24.63;50.40;92947.84;5039698;28;20220;-69
2022/08/12 09:32:50;;;;;;;10.70;9.88;;;;;;;24.88;49.15;92928.44;5038699;28;20204;-70
2022/08/12 09:35:19;;;;;;;10.32;9.63;;;;;;;25.00;50.34;92940.81;5038241;28;20229;-71
2022/08/12 09:37:46;;;;;;;9.80;9.13;;;;;;;24.95;50.41;92927.78;5037100;28;20204;-71
2022/08/12 09:40:12;;;;;;;8.77;8.27;;;;;;;24.41;52.04;92943.25;5036721;28;20249;-69
2022/08/12 09:45:22;;;;;;;10.48;9.82;;;;;;;24.52;51.87;92938.88;5036467;28;21879;-71
2022/08/12 09:47:49;;;;;;;9.68;9.05;;;;;;;24.66;50.70;92915.09;5039362;28;20186;-72
2022/08/12 09:50:15;;;;;;;10.18;9.48;;;;;;;25.32;49.64;92942.06;5038224;28;20513;-71
2022/08/12 09:52:43;;;;;;;7.53;7.20;;;;;;;25.32;47.70;92935.94;5039134;28;20186;-70
2022/08/12 09:55:10;;;;;;;9.00;8.50;;;;;;;25.23;48.06;92912.16;5037587;28;20252;-69
2022/08/12 09:57:35;;;;;;;8.77;8.27;;;;;;;25.21;50.51;92906.41;5038308;28;20197;-71
2022/08/12 10:00:03;;;;;;;8.70;8.20;;;;;;;25.17;49.48;92881.50;5039095;28;20218;-70
2022/08/12 10:02:28;;;;;;;9.45;8.77;;;;;;;25.73;47.52;92926.97;5035309;28;20186;-70
2022/08/12 10:04:56;;;;;;;9.20;8.70;;;;;;;25.85;47.64;92938.19;5038175;28;20235;-71
2022/08/12 10:07:22;;;;;;;9.25;8.65;;;;;;;25.06;52.16;92923.34;5037711;28;20225;-71
2022/08/12 10:09:49;;;;;;;8.35;7.75;;;;;;;25.27;49.75;92924.44;5039321;28;20218;-71
2022/08/12 10:14:59;;;;;;;9.60;9.00;;;;;;;25.71;53.47;92918.53;5038085;28;20240;-71
2022/08/12 10:17:24;;;;;;;9.32;8.82;;;;;;;25.54;52.97;92916.41;5037714;28;20183;-70
2022/08/12 10:19:51;;;;;;;9.75;9.15;;;;;;;25.76;51.68;92905.59;5037398;28;20230;-71
2022/08/12 10:22:16;;;;;;;9.15;8.63;;;;;;;25.68;49.81;92917.38;5039854;28;20179;-71
2022/08/12 10:24:42;;;;;;;9.02;8.52;;;;;;;26.00;47.88;92907.81;5041876;28;20333;-71
2022/08/12 10:29:56;;;;;;;8.88;8.38;;;;;;;25.94;51.01;92887.84;5022101;28;20218;-71
2022/08/12 10:32:22;;;;;;;8.73;8.23;;;;;;;25.72;51.32;92885.28;5042222;28;20192;-70
2022/08/12 10:34:49;;;;;;;8.88;8.38;;;;;;;25.98;49.37;92880.59;5043593;28;20226;-70
2022/08/12 10:37:15;;;;;;;9.75;9.05;;;;;;;25.23;52.28;92886.19;5042894;28;20212;-71
2022/08/12 10:39:40;;;;;;;8.88;8.38;;;;;;;25.48;53.12;92896.47;5039060;28;20222;-71
2022/08/12 10:45:04;;;;;;;10.20;9.23;;;;;;;24.50;52.63;92893.09;5041951;28;20244;-71
2022/08/12 10:47:31;;;;;;;9.35;8.85;;;;;;;24.32;53.98;92894.69;5038900;28;20186;-71
2022/08/12 10:49:58;;;;;;;10.23;9.55;;;;;;;24.91;55.02;92889.53;5039968;28;20225;-71
2022/08/12 10:52:25;;;;;;;10.23;9.60;;;;;;;24.34;53.89;92895.88;5040960;28;20205;-71
2022/08/12 10:54:51;;;;;;;10.20;9.60;;;;;;;24.23;54.50;92902.16;5039473;28;20317;-71
2022/08/12 10:57:17;;;;;;;10.40;9.70;;;;;;;23.87;54.79;92894.63;5042556;28;20213;-71
2022/08/12 10:59:43;;;;;;;10.63;9.65;;;;;;;23.99;58.37;92889.13;5040725;28;20223;-71
2022/08/12 11:02:13;;;;;;;9.50;8.95;;;;;;;23.81;54.14;92891.47;5041231;28;20216;-70
2022/08/12 11:04:40;;;;;;;10.10;9.50;;;;;;;24.23;57.05;92889.59;5041137;28;20223;-71
2022/08/12 11:07:06;;;;;;;10.15;9.52;;;;;;;23.89;53.04;92881.72;5040176;28;20320;-71
2022/08/12 11:09:33;;;;;;;10.00;9.38;;;;;;;23.96;57.33;92887.97;5040169;28;20237;-71
2022/08/12 11:12:05;;;;;;;8.80;8.30;;;;;;;24.26;58.17;92880.09;5039033;28;20185;-70
2022/08/12 11:14:32;;;;;;;10.07;9.48;;;;;;;24.16;54.14;92878.00;5041447;28;20261;-71
2022/08/12 11:17:06;;;;;;;9.80;9.30;;;;;;;24.53;55.26;92889.72;5036802;28;20205;-71
2022/08/12 11:19:32;;;;;;;9.60;9.10;;;;;;;24.18;56.44;92887.22;5042315;28;20225;-71
2022/08/12 11:21:58;;;;;;;9.20;8.57;;;;;;;24.17;59.16;92887.56;5039888;28;20190;-70
2022/08/12 11:24:25;;;;;;;9.43;8.93;;;;;;;24.03;59.09;92879.31;5037385;28;20217;-71
2022/08/12 11:26:52;;;;;;;9.30;8.70;;;;;;;23.89;60.59;92876.38;5040786;28;20193;-71
2022/08/12 11:29:23;;;;;;;9.95;9.32;;;;;;;23.55;60.70;92873.44;5041541;28;20304;-71
2022/08/12 11:31:49;;;;;;;9.13;8.63;;;;;;;23.33;61.26;92860.81;5039063;28;20253;-71
2022/08/12 11:34:17;;;;;;;9.77;9.18;;;;;;;23.73;60.47;92868.47;5036897;28;20240;-70
2022/08/12 11:36:54;;;;;;;10.18;9.57;;;;;;;23.57;65.93;92871.22;5039891;28;20209;-71
2022/08/12 11:39:21;;;;;;;9.75;9.15;;;;;;;23.10;68.98;92865.28;5037193;28;20251;-71
2022/08/12 11:41:46;;;;;;;9.93;9.40;;;;;;;22.75;71.10;92871.72;5040463;28;20204;-70
2022/08/12 11:44:12;;;;;;;10.00;9.43;;;;;;;22.77;73.34;92872.91;5037216;28;20233;-70
2022/08/12 11:46:39;;;;;;;10.05;9.32;;;;;;;22.71;74.42;92850.34;5037922;28;20200;-70
2022/08/12 11:49:06;;;;;;;11.00;10.35;;;;;;;23.09;73.00;92877.06;5038519;28;20248;-69
2022/08/12 11:51:31;;;;;;;10.75;9.77;;;;;;;23.00;73.92;92873.03;5041629;28;20231;-71
2022/08/12 11:53:57;;;;;;;11.18;10.38;;;;;;;22.97;74.58;92869.19;5038649;28;20237;-70
2022/08/12 11:56:23;;;;;;;10.63;9.98;;;;;;;23.09;73.12;92858.41;5034198;28;20185;-70
2022/08/12 11:58:48;;;;;;;11.15;10.45;;;;;;;23.33;71.76;92871.47;5038315;28;20240;-70
2022/08/12 12:01:14;;;;;;;10.77;10.18;;;;;;;23.07;70.91;92857.97;5039358;28;20719;-70
2022/08/12 12:03:40;;;;;;;11.65;10.85;;;;;;;23.53;70.24;92849.03;5040977;28;20238;-70
2022/08/12 12:06:05;;;;;;;10.63;9.82;;;;;;;23.71;70.54;92854.72;5039781;28;20189;-70
2022/08/12 12:08:31;;;;;;;10.68;10.00;;;;;;;23.85;69.38;92843.50;5039581;28;20269;-71
2022/08/12 12:10:56;;;;;;;11.25;10.55;;;;;;;24.01;68.33;92833.53;5039354;28;20204;-71
2022/08/12 12:13:22;;;;;;;10.82;10.10;;;;;;;24.05;68.01;92863.75;5040886;28;20185;-71
2022/08/12 12:15:47;;;;;;;10.23;9.63;;;;;;;24.14;67.28;92856.28;5039471;28;20204;-70
2022/08/12 12:18:23;;;;;;;10.35;9.63;;;;;;;24.49;64.32;92852.28;5039765;28;20196;-71
2022/08/12 12:20:49;;;;;;;9.75;9.15;;;;;;;24.59;65.40;92858.91;5036618;28;20221;-70
2022/08/12 12:23:15;;;;;;;11.50;10.60;;;;;;;24.98;61.17;92857.59;5038068;28;20190;-71
2022/08/12 12:25:40;;;;;;;9.15;8.63;;;;;;;25.32;56.86;92827.13;5038749;28;20308;-71
2022/08/12 12:28:05;;;;;;;11.15;10.35;;;;;;;25.79;57.40;92848.69;5040012;28;20201;-71
2022/08/12 12:30:32;;;;;;;9.50;8.90;;;;;;;25.69;52.94;92859.25;5038961;28;20242;-71
2022/08/12 12:32:58;;;;;;;9.30;8.70;;;;;;;25.67;49.19;92851.59;5038438;28;20198;-71
2022/08/12 12:35:23;;;;;;;9.73;9.02;;;;;;;25.48;51.68;92811.66;5039540;28;20230;-72
2022/08/12 12:37:56;;;;;;;9.55;9.05;;;;;;;25.65;50.27;92848.53;5037436;28;20206;-69
2022/08/12 12:40:23;;;;;;;9.50;8.90;;;;;;;25.60;47.93;92842.75;5038184;28;20214;-69
2022/08/12 12:42:48;;;;;;;9.77;9.18;;;;;;;25.27;48.48;92843.47;5037484;28;20182;-70
2022/08/12 12:45:15;;;;;;;10.57;9.80;;;;;;;25.26;50.40;92831.25;5040598;28;20222;-70
2022/08/12 12:47:58;;;;;;;8.77;8.10;;;;;;;25.68;48.84;92834.44;5036507;28;20187;-71
2022/08/12 12:50:25;;;;;;;9.68;9.07;;;;;;;25.88;46.54;92833.13;5037293;28;20238;-71
2022/08/12 12:52:50;;;;;;;9.63;8.73;;;;;;;25.51;50.36;92831.56;5039021;28;20224;-70
2022/08/12 12:55:17;;;;;;;9.65;8.73;;;;;;;25.67;50.52;92830.22;5038359;28;20240;-70
2022/08/12 12:57:42;;;;;;;8.73;8.32;;;;;;;25.84;49.30;92823.53;5041751;28;20256;-71
2022/08/12 13:00:15;;;;;;;10.15;9.45;;;;;;;25.63;48.10;92824.06;5038956;28;20231;-71
2022/08/12 13:02:54;;;;;;;9.38;8.77;;;;;;;25.41;47.82;92827.63;5038127;28;20301;-69
2022/08/12 13:05:27;;;;;;;9.65;9.05;;;;;;;25.30;48.69;92799.97;5035551;28;20217;-72
2022/08/12 13:07:59;;;;;;;9.80;9.10;;;;;;;25.69;46.73;92817.25;5040378;28;20285;-71
2022/08/12 13:10:25;;;;;;;9.73;9.13;;;;;;;25.62;48.86;92806.47;5035332;28;20238;-71
2022/08/12 13:12:52;;;;;;;9.38;8.88;;;;;;;25.62;50.00;92811.06;5039692;28;20203;-71
2022/08/12 13:15:18;;;;;;;10.55;9.85;;;;;;;25.52;49.99;92807.13;5035645;28;20214;-70
2022/08/12 13:17:55;;;;;;;10.55;9.77;;;;;;;25.41;51.39;92808.91;5039205;28;20204;-72
2022/08/12 13:20:21;;;;;;;10.02;9.32;;;;;;;25.29;51.13;92807.22;5037772;28;20217;-71